createdAt,value
2018-02-23T00:02:14.281Z,101964
2018-02-23T00:04:42.426Z,101966
2018-02-23T00:07:10.562Z,101976
2018-02-23T00:09:38.714Z,101967
2018-02-23T00:12:06.846Z,101966
2018-02-23T00:14:35.130Z,101966
2018-02-23T00:17:03.267Z,101961
2018-02-23T00:19:32.196Z,101954
2018-02-23T00:22:00.342Z,101955
2018-02-23T00:24:28.489Z,101954
2018-02-23T00:26:56.710Z,101961
2018-02-23T00:29:24.842Z,101963
2018-02-23T00:31:53.876Z,101957
2018-02-23T00:34:22.712Z,101960
2018-02-23T00:36:50.942Z,101957
2018-02-23T00:39:19.094Z,101956
2018-02-23T00:41:47.232Z,101960
2018-02-23T00:44:15.454Z,101964
2018-02-23T00:46:43.598Z,101961
2018-02-23T00:49:12.534Z,101962
2018-02-23T00:51:40.674Z,101965
2018-02-23T00:54:08.810Z,101963
2018-02-23T00:56:36.991Z,101956
2018-02-23T00:59:05.126Z,101947
2018-02-23T01:01:34.049Z,101944
2018-02-23T01:04:03.020Z,101954
2018-02-23T01:06:31.158Z,101955
2018-02-23T01:08:59.299Z,101951
2018-02-23T01:11:28.245Z,101954
2018-02-23T01:13:56.386Z,101959
2018-02-23T01:16:24.531Z,101950
2018-02-23T01:18:53.478Z,101951
2018-02-23T01:21:21.626Z,101960
2018-02-23T01:23:49.775Z,101946
2018-02-23T01:26:18.726Z,101955
2018-02-23T01:28:46.882Z,101954
2018-02-23T01:31:15.082Z,101954
2018-02-23T01:33:43.330Z,101939
2018-02-23T01:36:11.474Z,101955
2018-02-23T01:38:39.630Z,101947
2018-02-23T01:41:08.551Z,101947
2018-02-23T01:43:36.715Z,101947
2018-02-23T01:46:04.902Z,101947
2018-02-23T01:48:33.042Z,101947
2018-02-23T01:51:01.959Z,101947
2018-02-23T01:53:30.137Z,101951
2018-02-23T01:55:58.322Z,101936
2018-02-23T01:58:26.478Z,101942
2018-02-23T02:00:54.639Z,101945
2018-02-23T02:03:22.782Z,101940
2018-02-23T02:05:51.714Z,101941
2018-02-23T02:08:19.858Z,101937
2018-02-23T02:10:48.775Z,101939
2018-02-23T02:13:16.937Z,101943
2018-02-23T02:15:45.085Z,101933
2018-02-23T02:18:13.997Z,101937
2018-02-23T02:20:42.154Z,101944
2018-02-23T02:23:11.077Z,101932
2018-02-23T02:25:39.233Z,101941
2018-02-23T02:28:07.434Z,101945
2018-02-23T02:30:35.597Z,101933
2018-02-23T02:33:03.746Z,101933
2018-02-23T02:35:31.886Z,101931
2018-02-23T02:38:00.986Z,101935
2018-02-23T02:40:29.154Z,101929
2018-02-23T02:42:57.350Z,101934
2018-02-23T02:45:25.473Z,101934
2018-02-23T02:47:53.651Z,101940
2018-02-23T02:50:21.798Z,101927
2018-02-23T02:52:49.966Z,101924
2018-02-23T02:55:18.110Z,101933
2018-02-23T02:57:47.025Z,101928
2018-02-23T03:00:15.195Z,101935
2018-02-23T03:02:43.343Z,101933
2018-02-23T03:05:12.529Z,101939
2018-02-23T03:07:40.707Z,101939
2018-02-23T03:10:09.643Z,101936
2018-02-23T03:12:37.787Z,101937
2018-02-23T03:15:05.961Z,101938
2018-02-23T03:17:34.107Z,101937
2018-02-23T03:20:02.333Z,101946
2018-02-23T03:22:30.813Z,101946
2018-02-23T03:24:58.959Z,101936
2018-02-23T03:27:27.110Z,101936
2018-02-23T03:29:56.055Z,101924
2018-02-23T03:32:24.203Z,101927
2018-02-23T03:34:52.345Z,101938
2018-02-23T03:37:21.286Z,101931
2018-02-23T03:39:49.435Z,101928
2018-02-23T03:42:17.578Z,101932
2018-02-23T03:44:45.759Z,101939
2018-02-23T03:47:14.674Z,101939
2018-02-23T03:49:42.813Z,101945
2018-02-23T03:52:11.053Z,101955
2018-02-23T03:54:39.222Z,101952
2018-02-23T03:57:07.386Z,101946
2018-02-23T03:59:35.551Z,101951
2018-02-23T04:02:03.723Z,101942
2018-02-23T04:04:31.866Z,101955
2018-02-23T04:07:00.784Z,101953
2018-02-23T04:09:28.959Z,101955
2018-02-23T04:11:57.443Z,101946
2018-02-23T04:14:25.604Z,101959
2018-02-23T04:16:53.794Z,101955
2018-02-23T04:19:21.937Z,101951
2018-02-23T04:21:50.077Z,101959
2018-02-23T04:24:18.234Z,101951
2018-02-23T04:26:46.374Z,101955
2018-02-23T04:29:14.546Z,101954
2018-02-23T04:31:42.689Z,101963
2018-02-23T04:34:11.598Z,101964
2018-02-23T04:36:39.758Z,101960
2018-02-23T04:39:07.914Z,101963
2018-02-23T04:41:36.826Z,101964
2018-02-23T04:44:04.998Z,101969
2018-02-23T04:46:33.151Z,101973
2018-02-23T04:49:02.066Z,101969
2018-02-23T04:51:30.251Z,101970
2018-02-23T04:53:58.394Z,101973
2018-02-23T04:56:27.306Z,101978
2018-02-23T04:58:55.477Z,101980
2018-02-23T05:01:24.041Z,101993
2018-02-23T05:03:52.953Z,101991
2018-02-23T05:06:21.114Z,101997
2018-02-23T05:08:49.282Z,101989
2018-02-23T05:11:17.431Z,101988
2018-02-23T05:13:45.573Z,101990
2018-02-23T05:16:13.731Z,101982
2018-02-23T05:18:41.900Z,101973
2018-02-23T05:21:10.050Z,101992
2018-02-23T05:23:38.190Z,101986
2018-02-23T05:26:06.358Z,101995
2018-02-23T05:28:34.503Z,101994
2018-02-23T05:31:02.654Z,102002
2018-02-23T05:33:30.846Z,101990
2018-02-23T05:35:59.015Z,101995
2018-02-23T05:38:27.206Z,101996
2018-02-23T05:40:55.545Z,101998
2018-02-23T05:43:23.695Z,102003
2018-02-23T05:45:52.638Z,102001
2018-02-23T05:48:20.783Z,101997
2018-02-23T05:50:48.960Z,101992
2018-02-23T05:53:17.127Z,102002
2018-02-23T05:55:45.287Z,102010
2018-02-23T05:58:13.430Z,102006
2018-02-23T06:00:41.613Z,102011
2018-02-23T06:03:10.524Z,102011
2018-02-23T06:05:38.666Z,102017
2018-02-23T06:08:06.842Z,102017
2018-02-23T06:10:34.994Z,102031
2018-02-23T06:13:03.142Z,102028
2018-02-23T06:15:36.964Z,102034
2018-02-23T06:18:07.466Z,102028
2018-02-23T06:20:35.619Z,102036
2018-02-23T06:23:03.925Z,102034
2018-02-23T06:25:32.090Z,102040
2018-02-23T06:28:00.334Z,102039
2018-02-23T06:30:29.671Z,102042
2018-02-23T06:32:57.810Z,102047
2018-02-23T06:35:25.954Z,102041
2018-02-23T06:37:54.119Z,102027
2018-02-23T06:40:22.333Z,102051
2018-02-23T06:42:50.486Z,102047
2018-02-23T06:45:22.095Z,102050
2018-02-23T06:47:50.246Z,102050
2018-02-23T06:50:18.390Z,102046
2018-02-23T06:52:47.334Z,102063
2018-02-23T06:55:15.484Z,102062
2018-02-23T06:57:43.742Z,102065
2018-02-23T07:00:12.686Z,102070
2018-02-23T07:02:40.842Z,102069
2018-02-23T07:05:09.102Z,102072
2018-02-23T07:07:37.262Z,102062
2018-02-23T07:10:05.426Z,102068
2018-02-23T07:12:33.574Z,102061
2018-02-23T07:15:02.507Z,102066
2018-02-23T07:17:30.650Z,102068
2018-02-23T07:19:59.586Z,102062
2018-02-23T07:22:27.764Z,102077
2018-02-23T07:24:55.915Z,102067
2018-02-23T07:27:24.057Z,102070
2018-02-23T07:29:52.993Z,102063
2018-02-23T07:32:21.129Z,102077
2018-02-23T07:34:49.342Z,102066
2018-02-23T07:37:17.487Z,102077
2018-02-23T07:39:45.635Z,102090
2018-02-23T07:42:14.570Z,102085
2018-02-23T07:44:42.722Z,102095
2018-02-23T07:47:10.874Z,102084
2018-02-23T07:49:39.813Z,102075
2018-02-23T07:52:07.962Z,102083
2018-02-23T07:54:36.106Z,102091
2018-02-23T07:57:05.050Z,102087
2018-02-23T07:59:33.203Z,102095
2018-02-23T08:02:01.371Z,102091
2018-02-23T08:04:29.551Z,102102
2018-02-23T08:06:57.696Z,102098
2018-02-23T08:09:25.861Z,102106
2018-02-23T08:11:54.774Z,102090
2018-02-23T08:14:22.920Z,102103
2018-02-23T08:16:51.857Z,102114
2018-02-23T08:19:19.998Z,102104
2018-02-23T08:21:48.148Z,102104
2018-02-23T08:24:17.082Z,102128
2018-02-23T08:26:45.246Z,102112
2018-02-23T08:29:13.406Z,102112
2018-02-23T08:31:41.943Z,102110
2018-02-23T08:34:10.095Z,102110
2018-02-23T08:36:38.238Z,102116
2018-02-23T08:39:06.405Z,102109
2018-02-23T08:41:34.555Z,102108
2018-02-23T08:44:03.470Z,102106
2018-02-23T08:46:31.631Z,102103
2018-02-23T08:49:00.537Z,102109
2018-02-23T08:51:28.883Z,102112
2018-02-23T08:53:57.898Z,102111
2018-02-23T08:56:26.094Z,102109
2018-02-23T08:58:54.270Z,102114
2018-02-23T09:01:22.431Z,102103
2018-02-23T09:03:51.907Z,102111
2018-02-23T09:06:20.822Z,102109
2018-02-23T09:08:49.371Z,102116
2018-02-23T09:11:17.532Z,102117
2018-02-23T09:13:45.766Z,102119
2018-02-23T09:16:14.660Z,102118
2018-02-23T09:18:42.842Z,102118
2018-02-23T09:21:11.005Z,102112
2018-02-23T09:23:39.174Z,102119
2018-02-23T09:26:07.343Z,102129
2018-02-23T09:28:35.735Z,102118
2018-02-23T09:31:03.894Z,102117
2018-02-23T09:33:49.894Z,102114
2018-02-23T09:36:18.062Z,102125
2018-02-23T09:38:46.205Z,102130
2018-02-23T09:41:15.133Z,102134
2018-02-23T09:43:43.317Z,102127
2018-02-23T09:46:11.458Z,102126
2018-02-23T09:48:39.639Z,102112
2018-02-23T09:51:07.769Z,102120
2018-02-23T09:53:36.673Z,102116
2018-02-23T09:56:04.834Z,102113
2018-02-23T09:58:33.739Z,102109
2018-02-23T10:01:01.887Z,102110
2018-02-23T10:03:30.111Z,102108
2018-02-23T10:05:58.291Z,102110
2018-02-23T10:08:26.463Z,102109
2018-02-23T10:10:54.605Z,102109
2018-02-23T10:13:22.752Z,102110
2018-02-23T10:15:51.685Z,102119
2018-02-23T10:18:19.822Z,102119
2018-02-23T10:20:48.717Z,102122
2018-02-23T10:23:17.662Z,102120
2018-02-23T10:25:45.797Z,102109
2018-02-23T10:28:14.238Z,102120
2018-02-23T10:30:42.397Z,102119
2018-02-23T10:33:10.531Z,102112
2018-02-23T10:35:38.737Z,102109
2018-02-23T10:38:06.946Z,102113
2018-02-23T10:40:35.107Z,102105
2018-02-23T10:43:03.247Z,102110
2018-02-23T10:45:31.421Z,102104
2018-02-23T10:47:59.562Z,102107
2018-02-23T10:50:27.702Z,102097
2018-02-23T10:52:56.626Z,102100
2018-02-23T10:55:25.019Z,102097
2018-02-23T10:57:53.217Z,102097
2018-02-23T11:00:21.363Z,102099
2018-02-23T11:02:49.501Z,102092
2018-02-23T11:05:18.942Z,102094
2018-02-23T11:07:47.084Z,102104
2018-02-23T11:10:15.237Z,102087
2018-02-23T11:12:44.174Z,102100
2018-02-23T11:15:12.318Z,102103
2018-02-23T11:17:40.466Z,102098
2018-02-23T11:20:09.970Z,102096
2018-02-23T11:22:38.102Z,102091
2018-02-23T11:25:06.256Z,102096
2018-02-23T11:27:34.413Z,102089
2018-02-23T11:30:02.558Z,102071
2018-02-23T11:32:30.765Z,102080
2018-02-23T11:34:58.964Z,102073
2018-02-23T11:37:27.926Z,102073
2018-02-23T11:39:56.071Z,102073
2018-02-23T11:42:24.218Z,102085
2018-02-23T11:44:52.453Z,102073
2018-02-23T11:47:20.602Z,102070
2018-02-23T11:49:49.510Z,102066
2018-02-23T11:52:17.685Z,102059
2018-02-23T11:54:45.847Z,102060
2018-02-23T11:57:14.758Z,102071
2018-02-23T11:59:42.955Z,102071
2018-02-23T12:02:11.097Z,102062
2018-02-23T12:04:39.283Z,102063
2018-02-23T12:07:07.563Z,102060
2018-02-23T12:09:35.694Z,102059
2018-02-23T12:12:04.618Z,102075
2018-02-23T12:14:32.801Z,102073
2018-02-23T12:17:00.938Z,102063
2018-02-23T12:19:29.851Z,102073
2018-02-23T12:21:58.863Z,102059
2018-02-23T12:24:27.010Z,102054
2018-02-23T12:26:55.154Z,102071
2018-02-23T12:29:24.741Z,102053
2018-02-23T12:31:52.975Z,102061
2018-02-23T12:34:21.186Z,102054
2018-02-23T12:36:49.478Z,102058
2018-02-23T12:39:18.385Z,102061
2018-02-23T12:41:48.139Z,102053
2018-02-23T12:44:17.067Z,102049
2018-02-23T12:46:45.300Z,102045
2018-02-23T12:49:13.454Z,102044
2018-02-23T12:51:41.589Z,102052
2018-02-23T12:54:11.133Z,102057
2018-02-23T12:56:40.645Z,102050
2018-02-23T12:59:10.166Z,102051
2018-02-23T13:01:39.774Z,102052
2018-02-23T13:04:09.379Z,102052
2018-02-23T13:06:38.917Z,102059
2018-02-23T13:09:08.413Z,102045
2018-02-23T13:11:37.989Z,102059
2018-02-23T13:14:07.505Z,102060
2018-02-23T13:16:37.009Z,102054
2018-02-23T13:19:06.592Z,102054
2018-02-23T13:21:36.097Z,102052
2018-02-23T13:24:05.720Z,102051
2018-02-23T13:26:35.217Z,102051
2018-02-23T13:29:04.738Z,102054
2018-02-23T13:31:34.456Z,102056
2018-02-23T13:34:04.037Z,102055
2018-02-23T13:36:33.973Z,102056
2018-02-23T13:39:03.562Z,102053
2018-02-23T13:41:38.790Z,102054
2018-02-23T13:44:08.393Z,102058
2018-02-23T13:46:37.938Z,102060
2018-02-23T13:49:07.434Z,102061
2018-02-23T13:51:36.986Z,102065
2018-02-23T13:54:12.097Z,102054
2018-02-23T13:56:41.645Z,102059
2018-02-23T13:59:11.153Z,102052
2018-02-23T14:01:40.686Z,102055
2018-02-23T14:04:10.202Z,102061
2018-02-23T14:06:39.738Z,102060
2018-02-23T14:09:09.238Z,102061
2018-02-23T14:11:38.773Z,102058
2018-02-23T14:14:08.290Z,102050
2018-02-23T14:16:37.801Z,102060
2018-02-23T14:19:07.522Z,102063
2018-02-23T14:21:37.073Z,102064
2018-02-23T14:24:06.570Z,102066
2018-02-23T14:26:36.203Z,102060
2018-02-23T14:29:05.714Z,102058
2018-02-23T14:31:35.238Z,102072
2018-02-23T14:34:04.734Z,102065
2018-02-23T14:36:34.338Z,102057
2018-02-23T14:39:03.829Z,102055
2018-02-23T14:41:33.364Z,102053
2018-02-23T14:44:02.865Z,102049
2018-02-23T14:46:32.461Z,102047
2018-02-23T14:49:14.782Z,102056
2018-02-23T14:51:44.309Z,102060
2018-02-23T14:54:13.815Z,102064
2018-02-23T14:56:43.335Z,102054
2018-02-23T14:59:12.833Z,102055
2018-02-23T15:01:42.345Z,102057
2018-02-23T15:04:11.836Z,102052
2018-02-23T15:06:41.394Z,102061
2018-02-23T15:09:11.017Z,102047
2018-02-23T15:11:40.594Z,102052
2018-02-23T15:14:10.110Z,102053
2018-02-23T15:16:39.623Z,102047
2018-02-23T15:19:09.142Z,102056
2018-02-23T15:21:38.717Z,102052
2018-02-23T15:24:08.391Z,102047
2018-02-23T15:26:37.975Z,102044
2018-02-23T15:29:07.657Z,102052
2018-02-23T15:31:49.192Z,102049
2018-02-23T15:34:18.711Z,102051
2018-02-23T15:36:48.233Z,102054
2018-02-23T15:39:23.356Z,102052
2018-02-23T15:41:52.865Z,102059
2018-02-23T15:44:22.493Z,102055
2018-02-23T15:46:52.006Z,102062
2018-02-23T15:49:29.771Z,102063
2018-02-23T15:52:24.954Z,102057
2018-02-23T15:54:54.678Z,102060
2018-02-23T15:57:27.756Z,102059
2018-02-23T15:59:57.245Z,102056
2018-02-23T16:02:26.857Z,102057
2018-02-23T16:05:00.274Z,102067
2018-02-23T16:07:29.844Z,102077
2018-02-23T16:09:59.414Z,102068
2018-02-23T16:12:29.034Z,102067
2018-02-23T16:14:58.621Z,102077
2018-02-23T16:17:28.150Z,102067
2018-02-23T16:19:57.686Z,102074
2018-02-23T16:22:27.228Z,102066
2018-02-23T16:24:56.721Z,102074
2018-02-23T16:27:26.214Z,102072
2018-02-23T16:29:55.761Z,102067
2018-02-23T16:32:25.261Z,102080
2018-02-23T16:34:54.818Z,102071
2018-02-23T16:37:24.366Z,102080
2018-02-23T16:39:53.974Z,102080
2018-02-23T16:42:23.494Z,102080
2018-02-23T16:44:52.992Z,102080
2018-02-23T16:47:22.534Z,102087
2018-02-23T16:49:52.067Z,102077
2018-02-23T16:52:21.558Z,102080
2018-02-23T16:54:51.054Z,102078
2018-02-23T16:57:20.601Z,102065
2018-02-23T16:59:50.090Z,102066
2018-02-23T17:02:19.614Z,102075
2018-02-23T17:04:49.217Z,102082
2018-02-23T17:07:18.765Z,102078
2018-02-23T17:09:48.269Z,102075
2018-02-23T17:12:17.802Z,102073
2018-02-23T17:14:47.342Z,102089
2018-02-23T17:17:16.837Z,102073
2018-02-23T17:19:46.369Z,102071
2018-02-23T17:22:15.893Z,102079
2018-02-23T17:24:45.397Z,102081
2018-02-23T17:27:14.885Z,102069
2018-02-23T17:29:44.428Z,102086
2018-02-23T17:32:13.981Z,102080
2018-02-23T17:34:43.529Z,102080
2018-02-23T17:37:13.641Z,102083
2018-02-23T17:39:43.145Z,102083
2018-02-23T17:42:12.662Z,102082
2018-02-23T17:44:42.182Z,102084
2018-02-23T17:47:11.690Z,102085
2018-02-23T17:49:41.242Z,102095
2018-02-23T17:52:10.748Z,102094
2018-02-23T17:54:40.432Z,102089
2018-02-23T17:57:10.194Z,102094
2018-02-23T17:59:39.746Z,102099
2018-02-23T18:02:09.241Z,102101
2018-02-23T18:04:38.735Z,102104
2018-02-23T18:07:08.253Z,102104
2018-02-23T18:09:37.771Z,102106
2018-02-23T18:12:07.300Z,102116
2018-02-23T18:14:36.792Z,102120
2018-02-23T18:17:06.298Z,102126
2018-02-23T18:19:36.341Z,102117
2018-02-23T18:22:05.847Z,102115
2018-02-23T18:24:35.398Z,102114
2018-02-23T18:27:04.896Z,102114
2018-02-23T18:29:34.420Z,102113
2018-02-23T18:32:04.026Z,102110
2018-02-23T18:34:33.566Z,102117
2018-02-23T18:37:03.074Z,102119
2018-02-23T18:39:32.624Z,102122
2018-02-23T18:42:02.186Z,102121
2018-02-23T18:44:31.707Z,102111
2018-02-23T18:47:01.237Z,102117
2018-02-23T18:49:30.761Z,102117
2018-02-23T18:52:00.257Z,102119
2018-02-23T18:54:29.801Z,102113
2018-02-23T18:56:59.301Z,102119
2018-02-23T18:59:28.796Z,102114
2018-02-23T19:01:58.333Z,102130
2018-02-23T19:04:27.829Z,102130
2018-02-23T19:06:57.348Z,102133
2018-02-23T19:09:26.857Z,102134
2018-02-23T19:11:56.369Z,102135
2018-02-23T19:14:25.884Z,102144
2018-02-23T19:16:55.380Z,102137
2018-02-23T19:19:24.934Z,102142
2018-02-23T19:21:54.425Z,102147
2018-02-23T19:24:23.958Z,102143
2018-02-23T19:26:54.172Z,102154
2018-02-23T19:29:23.694Z,102152
2018-02-23T19:31:53.180Z,102147
2018-02-23T19:34:22.684Z,102150
2018-02-23T19:36:52.218Z,102151
2018-02-23T19:39:21.722Z,102167
2018-02-23T19:41:51.340Z,102157
2018-02-23T19:44:20.844Z,102164
2018-02-23T19:46:50.361Z,102169
2018-02-23T19:49:19.856Z,102153
2018-02-23T19:51:49.371Z,102162
2018-02-23T19:54:18.983Z,102166
2018-02-23T19:56:48.472Z,102168
2018-02-23T19:59:18.008Z,102165
2018-02-23T20:47:41.509Z,102187
2018-02-23T20:50:11.014Z,102181
2018-02-23T20:52:40.552Z,102182
2018-02-23T20:55:10.050Z,102180
2018-02-23T20:57:39.550Z,102187
2018-02-23T21:00:09.101Z,102183
2018-02-23T21:02:38.661Z,102188
2018-02-23T21:05:08.279Z,102180
2018-02-23T21:07:37.782Z,102186
2018-02-23T21:10:07.357Z,102191
2018-02-23T21:12:36.854Z,102193
2018-02-23T21:15:06.371Z,102194
2018-02-23T21:17:36.588Z,102198
2018-02-23T21:20:06.824Z,102194
2018-02-23T21:22:36.637Z,102191
2018-02-23T21:25:06.262Z,102191
2018-02-23T21:27:35.764Z,102194
2018-02-23T21:30:05.289Z,102200
2018-02-23T21:32:34.789Z,102201
2018-02-23T21:35:04.310Z,102192
2018-02-23T21:37:33.810Z,102197
2018-02-23T21:40:03.300Z,102207
2018-02-23T21:42:32.817Z,102198
2018-02-23T21:45:02.314Z,102191
2018-02-23T21:47:31.865Z,102191
2018-02-23T21:50:02.273Z,102204
2018-02-23T21:52:31.769Z,102191
2018-02-23T21:55:01.268Z,102191
2018-02-23T21:57:30.799Z,102199
2018-02-23T22:00:00.301Z,102194
2018-02-23T22:02:29.793Z,102202
2018-02-23T22:04:59.325Z,102201
2018-02-23T22:07:28.879Z,102191
2018-02-23T22:09:58.444Z,102185
2018-02-23T22:12:27.961Z,102192
2018-02-23T22:14:57.456Z,102208
2018-02-23T22:17:26.949Z,102199
2018-02-23T22:19:57.274Z,102193
2018-02-23T22:22:26.765Z,102198
2018-02-23T22:24:56.274Z,102199
2018-02-23T22:27:25.804Z,102192
2018-02-23T22:29:55.303Z,102198
2018-02-23T22:32:24.794Z,102201
2018-02-23T22:34:54.313Z,102195
2018-02-23T22:37:23.815Z,102211
2018-02-23T22:39:53.333Z,102205
2018-02-23T22:42:23.549Z,102212
2018-02-23T22:44:53.072Z,102206
2018-02-23T22:47:22.571Z,102222
2018-02-23T22:49:52.153Z,102213
2018-02-23T22:52:21.649Z,102215
2018-02-23T22:54:51.180Z,102217
2018-02-23T22:57:20.673Z,102206
2018-02-23T22:59:50.165Z,102207
2018-02-23T23:02:19.749Z,102212
2018-02-23T23:04:49.246Z,102213
2018-02-23T23:07:18.756Z,102206
2018-02-23T23:09:48.253Z,102204
2018-02-23T23:12:17.749Z,102215
2018-02-23T23:14:47.305Z,102215
2018-02-23T23:17:16.908Z,102208
2018-02-23T23:19:46.400Z,102206
2018-02-23T23:22:15.926Z,102210
2018-02-23T23:24:45.425Z,102212
2018-02-23T23:27:14.922Z,102213
2018-02-23T23:29:44.436Z,102218
2018-02-23T23:32:13.938Z,102211
2018-02-23T23:34:43.479Z,102204
2018-02-23T23:37:12.980Z,102215
2018-02-23T23:39:42.473Z,102217
2018-02-23T23:42:11.992Z,102212
2018-02-23T23:44:41.481Z,102217
2018-02-23T23:47:11.165Z,102217
2018-02-23T23:49:40.657Z,102222
2018-02-23T23:52:10.174Z,102214
2018-02-23T23:54:39.685Z,102210
2018-02-23T23:57:09.277Z,102218
2018-02-23T23:59:38.764Z,102220
